createdAt,value
2023-02-18T00:01:27.740Z,12.70
2023-02-18T00:03:54.218Z,12.68
2023-02-18T00:06:25.664Z,12.36
2023-02-18T00:08:52.855Z,12.10
2023-02-18T00:11:21.084Z,12.05
2023-02-18T00:13:52.738Z,11.80
2023-02-18T00:16:19.649Z,12.25
2023-02-18T00:18:46.091Z,11.90
2023-02-18T00:21:12.740Z,11.74
2023-02-18T00:23:39.503Z,11.90
2023-02-18T00:26:09.323Z,11.73
2023-02-18T00:28:35.952Z,11.67
2023-02-18T00:31:14.638Z,11.69
2023-02-18T00:33:42.329Z,11.73
2023-02-18T00:36:17.539Z,12.20
2023-02-18T00:38:45.667Z,11.90
2023-02-18T00:41:12.196Z,11.58
2023-02-18T00:43:38.591Z,11.54
2023-02-18T00:46:05.354Z,11.62
2023-02-18T00:48:32.455Z,11.45
2023-02-18T00:50:58.944Z,11.29
2023-02-18T00:53:25.261Z,11.27
2023-02-18T00:55:51.776Z,11.13
2023-02-18T00:58:18.173Z,11.08
2023-02-18T01:00:45.501Z,11.10
2023-02-18T01:03:12.174Z,10.97
2023-02-18T01:05:39.492Z,10.91
2023-02-18T01:08:07.262Z,10.90
2023-02-18T01:10:34.692Z,10.79
2023-02-18T01:13:01.481Z,10.85
2023-02-18T01:15:27.849Z,10.93
2023-02-18T01:17:54.279Z,10.76
2023-02-18T01:20:20.825Z,10.78
2023-02-18T01:22:47.360Z,10.62
2023-02-18T01:25:14.321Z,10.55
2023-02-18T01:27:40.826Z,10.67
2023-02-18T01:30:09.476Z,10.87
2023-02-18T01:32:36.247Z,10.73
2023-02-18T01:35:04.093Z,10.61
2023-02-18T01:37:30.392Z,10.52
2023-02-18T01:39:56.794Z,10.56
2023-02-18T01:42:28.472Z,10.52
2023-02-18T01:44:55.282Z,10.61
2023-02-18T01:47:21.887Z,10.61
2023-02-18T01:49:52.780Z,10.56
2023-02-18T01:52:24.192Z,10.51
2023-02-18T01:54:55.721Z,10.45
2023-02-18T01:57:30.032Z,10.43
2023-02-18T01:59:59.116Z,10.41
2023-02-18T02:02:28.533Z,10.43
2023-02-18T02:04:55.452Z,10.52
2023-02-18T02:07:25.796Z,10.75
2023-02-18T02:09:56.160Z,10.72
2023-02-18T02:12:28.603Z,10.66
2023-02-18T02:15:09.156Z,10.71
2023-02-18T02:17:44.360Z,10.64
2023-02-18T02:20:31.616Z,10.66
2023-02-18T02:23:32.636Z,10.57
2023-02-18T02:26:26.312Z,10.49
2023-02-18T02:29:12.448Z,10.54
2023-02-18T02:32:16.662Z,10.53
2023-02-18T02:34:55.128Z,10.51
2023-02-18T02:37:32.957Z,11.13
2023-02-18T02:40:41.882Z,11.25
2023-02-18T02:43:50.343Z,11.14
2023-02-18T02:46:32.110Z,10.99
2023-02-18T02:49:10.257Z,11.35
2023-02-18T02:52:00.223Z,11.36
2023-02-18T02:54:28.201Z,11.46
2023-02-18T02:57:13.770Z,11.30
2023-02-18T02:59:43.793Z,11.61
2023-02-18T03:02:50.317Z,11.59
2023-02-18T03:05:58.642Z,11.70
2023-02-18T03:09:09.682Z,11.64
2023-02-18T03:11:46.842Z,11.76
2023-02-18T03:14:27.586Z,11.40
2023-02-18T03:17:02.207Z,11.75
2023-02-18T03:19:35.071Z,11.93
2023-02-18T03:22:16.912Z,11.87
2023-02-18T03:24:46.778Z,12.15
2023-02-18T03:27:18.875Z,12.03
2023-02-18T03:29:48.484Z,11.64
2023-02-18T03:32:20.500Z,11.79
2023-02-18T03:34:51.702Z,12.10
2023-02-18T03:37:18.552Z,11.77
2023-02-18T03:39:49.565Z,12.03
2023-02-18T03:42:17.329Z,11.90
2023-02-18T03:44:43.712Z,12.05
2023-02-18T03:47:10.484Z,12.01
2023-02-18T03:49:36.798Z,12.11
2023-02-18T03:52:03.490Z,11.70
2023-02-18T03:54:29.858Z,11.97
2023-02-18T03:56:56.155Z,11.68
2023-02-18T03:59:22.552Z,12.04
2023-02-18T04:01:48.949Z,11.77
2023-02-18T04:04:15.263Z,11.54
2023-02-18T04:06:41.568Z,11.41
2023-02-18T04:09:08.056Z,11.88
2023-02-18T04:11:40.820Z,11.93
2023-02-18T04:14:08.580Z,11.99
2023-02-18T04:16:35.466Z,11.84
2023-02-18T04:19:01.908Z,12.07
2023-02-18T04:21:28.321Z,12.18
2023-02-18T04:23:54.746Z,12.02
2023-02-18T04:26:21.267Z,12.05
2023-02-18T04:28:47.769Z,11.83
2023-02-18T04:31:14.242Z,11.51
2023-02-18T04:33:40.768Z,12.08
2023-02-18T04:36:07.734Z,11.67
2023-02-18T04:38:34.316Z,11.44
2023-02-18T04:41:00.861Z,11.69
2023-02-18T04:43:27.220Z,11.56
2023-02-18T04:45:53.681Z,11.55
2023-02-18T04:48:20.000Z,11.91
2023-02-18T04:50:47.076Z,12.06
2023-02-18T04:53:13.469Z,11.93
2023-02-18T04:55:39.828Z,12.16
2023-02-18T04:58:06.192Z,11.95
2023-02-18T05:00:32.849Z,11.82
2023-02-18T05:02:59.139Z,12.24
2023-02-18T05:05:25.431Z,12.24
2023-02-18T05:07:51.844Z,12.19
2023-02-18T05:10:18.836Z,12.22
2023-02-18T05:12:45.337Z,12.10
2023-02-18T05:15:11.832Z,12.32
2023-02-18T05:17:38.305Z,12.27
2023-02-18T05:20:06.818Z,12.27
2023-02-18T05:22:34.548Z,12.37
2023-02-18T05:25:01.091Z,12.50
2023-02-18T05:27:27.416Z,12.35
2023-02-18T05:29:53.833Z,12.15
2023-02-18T05:32:20.180Z,12.25
2023-02-18T05:34:46.598Z,12.42
2023-02-18T05:37:12.965Z,12.18
2023-02-18T05:39:39.343Z,12.16
2023-02-18T05:42:05.836Z,12.40
2023-02-18T05:44:32.382Z,12.30
2023-02-18T05:47:05.128Z,11.94
2023-02-18T05:49:33.137Z,12.05
2023-02-18T05:51:59.962Z,12.36
2023-02-18T05:54:27.237Z,12.42
2023-02-18T05:56:53.943Z,12.52
2023-02-18T05:59:20.935Z,12.28
2023-02-18T06:01:47.765Z,12.24
2023-02-18T06:04:15.133Z,12.42
2023-02-18T06:06:41.780Z,12.58
2023-02-18T06:09:08.631Z,12.51
2023-02-18T06:11:35.721Z,12.48
2023-02-18T06:14:02.823Z,12.24
2023-02-18T06:16:29.901Z,12.06
2023-02-18T06:18:57.161Z,12.19
2023-02-18T06:21:23.557Z,11.89
2023-02-18T06:23:49.961Z,12.30
2023-02-18T06:26:16.404Z,12.47
2023-02-18T06:28:42.873Z,12.21
2023-02-18T06:31:09.349Z,12.18
2023-02-18T06:33:36.092Z,12.37
2023-02-18T06:36:05.611Z,12.47
2023-02-18T06:38:31.910Z,12.46
2023-02-18T06:40:58.570Z,12.35
2023-02-18T06:43:25.651Z,12.14
2023-02-18T06:45:52.067Z,12.26
2023-02-18T06:48:18.972Z,12.17
2023-02-18T06:50:45.884Z,12.47
2023-02-18T06:53:12.386Z,12.09
2023-02-18T06:55:38.989Z,12.38
2023-02-18T06:58:05.745Z,12.04
2023-02-18T07:00:32.474Z,12.36
2023-02-18T07:02:58.942Z,12.23
2023-02-18T07:05:25.804Z,12.26
2023-02-18T07:07:52.079Z,12.06
2023-02-18T07:10:18.704Z,12.36
2023-02-18T07:12:45.032Z,12.30
2023-02-18T07:15:11.395Z,12.37
2023-02-18T07:17:37.863Z,12.28
2023-02-18T07:20:05.552Z,12.17
2023-02-18T07:22:32.029Z,12.42
2023-02-18T07:24:58.800Z,12.29
2023-02-18T07:27:25.231Z,12.55
2023-02-18T07:29:51.766Z,12.40
2023-02-18T07:32:19.725Z,12.52
2023-02-18T07:34:46.167Z,12.49
2023-02-18T07:37:12.484Z,12.41
2023-02-18T07:39:43.130Z,12.53
2023-02-18T07:42:13.754Z,12.56
2023-02-18T07:44:41.361Z,12.54
2023-02-18T07:47:10.499Z,12.39
2023-02-18T07:49:36.779Z,12.59
2023-02-18T07:52:04.550Z,12.68
2023-02-18T07:54:31.985Z,12.81
2023-02-18T07:56:58.615Z,12.49
2023-02-18T07:59:25.006Z,12.64
2023-02-18T08:01:51.359Z,12.77
2023-02-18T08:04:17.863Z,12.89
2023-02-18T08:06:47.209Z,12.77
2023-02-18T08:09:14.899Z,12.59
2023-02-18T08:11:41.714Z,12.90
2023-02-18T08:14:08.322Z,12.91
2023-02-18T08:16:35.184Z,12.65
2023-02-18T08:19:02.534Z,12.52
2023-02-18T08:21:29.739Z,12.20
2023-02-18T08:23:58.357Z,12.44
2023-02-18T08:26:25.272Z,12.23
2023-02-18T08:28:51.604Z,12.09
2023-02-18T08:31:23.951Z,12.45
2023-02-18T08:33:51.093Z,12.62
2023-02-18T08:36:18.721Z,12.47
2023-02-18T08:38:45.241Z,12.54
2023-02-18T08:41:11.677Z,12.49
2023-02-18T08:43:38.180Z,12.44
2023-02-18T08:46:04.786Z,12.42
2023-02-18T08:48:31.832Z,12.44
2023-02-18T08:50:58.811Z,12.36
2023-02-18T08:53:25.469Z,12.24
2023-02-18T08:55:51.801Z,11.93
2023-02-18T08:58:18.202Z,11.84
2023-02-18T09:00:45.089Z,12.22
2023-02-18T09:03:15.494Z,12.14
2023-02-18T09:05:42.504Z,12.15
2023-02-18T09:08:08.981Z,12.34
2023-02-18T09:10:35.353Z,12.29
2023-02-18T09:13:01.935Z,12.28
2023-02-18T09:15:28.407Z,12.44
2023-02-18T09:17:54.941Z,12.25
2023-02-18T09:20:21.255Z,12.37
2023-02-18T09:22:47.629Z,12.37
2023-02-18T09:25:14.034Z,12.53
2023-02-18T09:27:40.354Z,12.46
2023-02-18T09:30:07.740Z,12.45
2023-02-18T09:32:35.508Z,12.48
2023-02-18T09:35:03.938Z,12.40
2023-02-18T09:37:30.252Z,12.41
2023-02-18T09:39:56.658Z,12.38
2023-02-18T09:42:32.519Z,12.47
2023-02-18T09:45:02.467Z,12.43
2023-02-18T09:47:36.955Z,12.33
2023-02-18T09:50:23.604Z,12.46
2023-02-18T09:52:52.717Z,12.55
2023-02-18T09:55:28.474Z,12.71
2023-02-18T09:58:02.605Z,12.51
2023-02-18T10:00:54.214Z,12.68
2023-02-18T10:03:23.913Z,12.63
2023-02-18T10:06:01.509Z,12.75
2023-02-18T10:08:31.431Z,12.86
2023-02-18T10:10:57.718Z,12.78
2023-02-18T10:13:28.491Z,12.86
2023-02-18T10:15:55.540Z,12.96
2023-02-18T10:18:27.605Z,12.83
2023-02-18T10:21:01.277Z,12.79
2023-02-18T10:23:29.612Z,12.87
2023-02-18T10:25:57.617Z,12.81
2023-02-18T10:28:26.408Z,12.70
2023-02-18T10:31:10.695Z,13.07
2023-02-18T10:34:07.023Z,13.01
2023-02-18T10:36:44.317Z,12.85
2023-02-18T10:39:36.254Z,12.83
2023-02-18T10:42:32.405Z,12.96
2023-02-18T10:45:19.930Z,12.73
2023-02-18T10:48:14.827Z,12.62
2023-02-18T10:50:44.626Z,12.54
2023-02-18T10:53:22.148Z,12.39
2023-02-18T10:55:48.677Z,12.60
2023-02-18T10:58:32.318Z,12.51
2023-02-18T11:01:01.665Z,12.47
2023-02-18T11:03:42.703Z,12.56
2023-02-18T11:06:28.429Z,12.80
2023-02-18T11:08:57.140Z,12.91
2023-02-18T11:11:33.559Z,12.88
2023-02-18T11:14:05.925Z,13.04
2023-02-18T11:16:46.570Z,13.11
2023-02-18T11:19:32.774Z,12.92
2023-02-18T11:22:19.100Z,12.96
2023-02-18T11:24:46.175Z,13.00
2023-02-18T11:27:21.697Z,12.86
2023-02-18T11:29:50.119Z,12.89
2023-02-18T11:32:17.297Z,12.87
2023-02-18T11:34:44.860Z,12.93
2023-02-18T11:37:19.983Z,12.91
2023-02-18T11:39:49.794Z,12.81
2023-02-18T11:42:20.695Z,13.06
2023-02-18T11:44:53.928Z,12.98
2023-02-18T11:47:24.010Z,13.01
2023-02-18T11:50:10.321Z,13.01
2023-02-18T11:52:38.175Z,12.75
2023-02-18T11:55:22.530Z,12.66
2023-02-18T11:57:59.158Z,12.84
2023-02-18T12:00:50.108Z,12.43
2023-02-18T12:04:08.769Z,12.54
2023-02-18T12:06:43.022Z,12.32
2023-02-18T12:09:20.774Z,12.10
2023-02-18T12:11:52.577Z,11.96
2023-02-18T12:14:22.352Z,11.90
2023-02-18T12:17:17.061Z,11.87
2023-02-18T12:19:46.351Z,11.73
2023-02-18T12:22:22.356Z,11.63
2023-02-18T12:25:13.739Z,11.69
2023-02-18T12:27:48.302Z,11.77
2023-02-18T12:30:32.621Z,11.54
2023-02-18T12:33:25.097Z,11.33
2023-02-18T12:36:21.988Z,11.53
2023-02-18T12:39:25.447Z,11.63
2023-02-18T12:42:09.841Z,11.49
2023-02-18T12:44:45.183Z,11.38
2023-02-18T12:47:29.475Z,11.51
2023-02-18T12:50:19.267Z,11.50
2023-02-18T12:53:11.089Z,11.49
2023-02-18T12:55:50.131Z,11.09
2023-02-18T12:58:32.326Z,11.51
2023-02-18T13:01:37.534Z,11.45
2023-02-18T13:04:12.927Z,11.38
2023-02-18T13:06:55.717Z,11.43
2023-02-18T13:09:56.043Z,11.56
2023-02-18T13:12:39.065Z,11.61
2023-02-18T13:15:18.409Z,11.41
2023-02-18T13:17:45.774Z,11.68
2023-02-18T13:20:25.335Z,11.52
2023-02-18T13:22:52.065Z,11.65
2023-02-18T13:25:19.370Z,11.66
2023-02-18T13:28:14.184Z,11.99
2023-02-18T13:30:49.736Z,12.04
2023-02-18T13:33:31.348Z,12.05
2023-02-18T13:36:05.532Z,11.93
2023-02-18T13:38:58.003Z,11.70
2023-02-18T13:41:26.535Z,11.97
2023-02-18T13:43:53.263Z,11.90
2023-02-18T13:46:25.649Z,11.83
2023-02-18T13:49:05.805Z,12.00
2023-02-18T13:51:45.698Z,12.00
2023-02-18T13:54:12.044Z,11.84
2023-02-18T13:56:50.030Z,11.77
2023-02-18T13:59:28.563Z,11.88
2023-02-18T14:01:55.032Z,11.81
2023-02-18T14:04:40.380Z,11.63
2023-02-18T14:07:25.133Z,11.56
2023-02-18T14:09:53.590Z,11.47
2023-02-18T14:12:39.897Z,11.54
2023-02-18T14:15:18.471Z,11.49
2023-02-18T14:18:13.048Z,11.21
2023-02-18T14:20:39.396Z,11.37
2023-02-18T14:23:17.963Z,11.53
2023-02-18T14:26:17.094Z,11.31
2023-02-18T14:28:49.124Z,11.27
2023-02-18T14:31:15.528Z,11.53
2023-02-18T14:34:03.391Z,11.44
2023-02-18T14:36:45.139Z,11.59
2023-02-18T14:39:25.143Z,11.63
2023-02-18T14:42:04.750Z,11.44
2023-02-18T14:44:46.274Z,11.44
2023-02-18T14:47:34.675Z,11.46
2023-02-18T14:50:04.465Z,11.33
2023-02-18T14:52:37.840Z,11.37
2023-02-18T14:55:07.407Z,11.18
2023-02-18T14:57:37.483Z,11.36
2023-02-18T15:00:04.385Z,11.29
2023-02-18T15:02:36.464Z,11.28
2023-02-18T15:05:13.827Z,11.45
2023-02-18T15:07:40.178Z,11.50
2023-02-18T15:10:13.962Z,11.21
2023-02-18T15:12:40.782Z,10.98
2023-02-18T15:15:08.041Z,11.02
2023-02-18T15:17:34.355Z,11.08
2023-02-18T15:20:06.114Z,11.26
2023-02-18T15:22:35.266Z,11.04
2023-02-18T15:25:02.835Z,11.02
2023-02-18T15:27:32.122Z,10.93
2023-02-18T15:30:21.611Z,11.08
2023-02-18T15:32:56.925Z,11.02
2023-02-18T15:35:27.321Z,11.16
2023-02-18T15:37:56.264Z,11.02
2023-02-18T15:40:27.193Z,10.72
2023-02-18T15:42:57.539Z,11.05
2023-02-18T15:45:35.348Z,10.65
2023-02-18T15:48:02.106Z,10.73
2023-02-18T15:50:49.918Z,11.11
2023-02-18T15:53:19.021Z,10.61
2023-02-18T15:55:51.732Z,11.19
2023-02-18T15:58:23.505Z,11.28
2023-02-18T16:00:53.698Z,11.05
2023-02-18T16:03:31.416Z,10.99
2023-02-18T16:06:19.799Z,11.15
2023-02-18T16:09:06.852Z,11.16
2023-02-18T16:11:40.290Z,10.93
2023-02-18T16:14:06.843Z,10.83
2023-02-18T16:16:36.664Z,10.84
2023-02-18T16:19:04.146Z,11.03
2023-02-18T16:21:37.394Z,10.81
2023-02-18T16:24:26.370Z,10.99
2023-02-18T16:27:00.860Z,10.97
2023-02-18T16:29:41.356Z,11.08
2023-02-18T16:32:07.774Z,11.03
2023-02-18T16:34:34.483Z,10.91
2023-02-18T16:37:01.328Z,10.92
2023-02-18T16:39:34.216Z,11.13
2023-02-18T16:42:00.814Z,10.95
2023-02-18T16:44:27.280Z,10.58
2023-02-18T16:46:56.835Z,11.08
2023-02-18T16:49:23.406Z,10.86
2023-02-18T16:51:49.717Z,10.63
2023-02-18T16:54:16.161Z,11.02
2023-02-18T16:56:42.558Z,10.93
2023-02-18T16:59:08.902Z,10.56
2023-02-18T17:01:45.288Z,10.92
2023-02-18T17:04:15.595Z,10.86
2023-02-18T17:06:43.142Z,11.08
2023-02-18T17:09:20.860Z,11.13
2023-02-18T17:11:50.048Z,10.81
2023-02-18T17:14:18.409Z,10.97
2023-02-18T17:16:50.305Z,10.76
2023-02-18T17:19:17.115Z,10.68
2023-02-18T17:21:43.567Z,11.08
2023-02-18T17:24:14.192Z,11.11
2023-02-18T17:26:40.960Z,11.21
2023-02-18T17:29:07.350Z,11.02
2023-02-18T17:31:41.650Z,11.32
2023-02-18T17:34:11.807Z,11.02
2023-02-18T17:36:38.177Z,11.00
2023-02-18T17:39:12.242Z,11.55
2023-02-18T17:41:38.707Z,10.96
2023-02-18T17:44:15.246Z,10.64
2023-02-18T17:46:41.533Z,10.89
2023-02-18T17:49:08.004Z,11.01
2023-02-18T17:51:34.842Z,10.93
2023-02-18T17:54:01.177Z,10.74
2023-02-18T17:56:27.557Z,10.83
2023-02-18T17:58:54.209Z,11.01
2023-02-18T18:01:20.651Z,10.87
2023-02-18T18:03:47.084Z,10.90
2023-02-18T18:06:18.524Z,11.04
2023-02-18T18:08:45.171Z,10.94
2023-02-18T18:11:18.661Z,10.85
2023-02-18T18:13:45.063Z,10.91
2023-02-18T18:16:13.902Z,11.19
2023-02-18T18:18:40.266Z,11.20
2023-02-18T18:21:16.159Z,11.08
2023-02-18T18:23:42.574Z,11.19
2023-02-18T18:26:09.394Z,10.81
2023-02-18T18:28:37.593Z,10.93
2023-02-18T18:31:04.397Z,11.01
2023-02-18T18:33:33.550Z,11.02
2023-02-18T18:36:00.673Z,11.22
2023-02-18T18:38:29.180Z,10.87
2023-02-18T18:40:56.577Z,10.75
2023-02-18T18:43:31.418Z,10.70
2023-02-18T18:45:59.436Z,10.93
2023-02-18T18:48:26.071Z,10.68
2023-02-18T18:50:54.552Z,10.77
2023-02-18T18:53:32.829Z,10.79
2023-02-18T18:56:01.921Z,10.84
2023-02-18T18:58:28.305Z,11.11
2023-02-18T19:00:57.275Z,10.84
2023-02-18T19:03:25.524Z,10.99
2023-02-18T19:05:52.774Z,10.91
2023-02-18T19:08:19.731Z,10.62
2023-02-18T19:10:53.064Z,10.78
2023-02-18T19:13:25.711Z,10.48
2023-02-18T19:16:01.049Z,10.56
2023-02-18T19:18:27.753Z,10.58
2023-02-18T19:20:54.295Z,10.59
2023-02-18T19:23:20.680Z,10.65
2023-02-18T19:25:47.034Z,10.64
2023-02-18T19:28:13.419Z,10.57
2023-02-18T19:30:40.218Z,10.51
2023-02-18T19:33:06.896Z,10.65
2023-02-18T19:35:33.212Z,10.67
2023-02-18T19:38:00.033Z,10.33
2023-02-18T19:40:30.233Z,10.41
2023-02-18T19:42:57.290Z,10.51
2023-02-18T19:45:24.540Z,10.72
2023-02-18T19:47:58.804Z,10.79
2023-02-18T19:50:28.299Z,10.74
2023-02-18T19:52:56.092Z,10.50
2023-02-18T19:55:23.375Z,10.38
2023-02-18T19:57:50.270Z,10.33
2023-02-18T20:00:18.853Z,10.39
2023-02-18T20:02:45.602Z,10.65
2023-02-18T20:05:13.862Z,10.80
2023-02-18T20:07:41.314Z,10.59
2023-02-18T20:10:11.240Z,10.53
2023-02-18T20:12:38.110Z,10.30
2023-02-18T20:15:04.881Z,10.66
2023-02-18T20:17:31.357Z,10.29
2023-02-18T20:19:57.704Z,10.54
2023-02-18T20:22:24.213Z,10.66
2023-02-18T20:24:50.904Z,10.37
2023-02-18T20:27:17.202Z,10.18
2023-02-18T20:29:43.882Z,10.16
2023-02-18T20:32:10.339Z,10.10
2023-02-18T20:34:36.778Z,10.80
2023-02-18T20:37:03.074Z,10.51
2023-02-18T20:39:29.569Z,10.29
2023-02-18T20:41:56.800Z,10.19
2023-02-18T20:44:24.697Z,10.06
2023-02-18T20:46:50.998Z,10.09
2023-02-18T20:49:19.549Z,10.22
2023-02-18T20:51:46.149Z,10.33
2023-02-18T20:54:16.526Z,10.72
2023-02-18T20:56:44.137Z,10.66
2023-02-18T20:59:16.341Z,10.37
2023-02-18T21:01:44.633Z,10.25
2023-02-18T21:04:12.946Z,10.55
2023-02-18T21:06:39.647Z,10.49
2023-02-18T21:09:06.317Z,10.60
2023-02-18T21:11:33.258Z,10.46
2023-02-18T21:14:00.014Z,10.43
2023-02-18T21:16:27.698Z,10.42
2023-02-18T21:18:54.456Z,10.43
2023-02-18T21:21:21.934Z,10.67
2023-02-18T21:23:48.271Z,10.56
2023-02-18T21:26:21.357Z,10.48
2023-02-18T21:28:49.877Z,10.32
2023-02-18T21:31:31.767Z,10.26
2023-02-18T21:33:58.650Z,10.27
2023-02-18T21:36:26.185Z,10.58
2023-02-18T21:38:57.588Z,10.79
2023-02-18T21:41:25.191Z,10.54
2023-02-18T21:43:51.906Z,10.68
2023-02-18T21:46:21.298Z,10.61
2023-02-18T21:48:48.458Z,10.43
2023-02-18T21:51:15.019Z,10.64
2023-02-18T21:53:41.390Z,11.03
2023-02-18T21:56:11.665Z,10.81
2023-02-18T21:58:37.982Z,10.80
2023-02-18T22:01:04.431Z,10.79
2023-02-18T22:03:32.648Z,10.79
2023-02-18T22:05:58.997Z,10.71
2023-02-18T22:08:25.526Z,10.38
2023-02-18T22:10:51.907Z,10.54
2023-02-18T22:13:18.231Z,10.53
2023-02-18T22:15:44.759Z,10.15
2023-02-18T22:18:11.056Z,9.96
2023-02-18T22:20:38.739Z,10.24
2023-02-18T22:23:05.064Z,10.51
2023-02-18T22:25:31.465Z,10.93
2023-02-18T22:27:57.819Z,10.52
2023-02-18T22:30:24.260Z,10.30
2023-02-18T22:32:50.711Z,10.31
2023-02-18T22:35:17.093Z,10.29
2023-02-18T22:37:43.404Z,10.63
2023-02-18T22:40:10.265Z,10.84
2023-02-18T22:42:36.662Z,10.65
2023-02-18T22:45:03.480Z,10.82
2023-02-18T22:47:29.929Z,10.88
2023-02-18T22:49:56.277Z,10.75
2023-02-18T22:52:22.660Z,10.90
2023-02-18T22:54:48.947Z,10.81
2023-02-18T22:57:15.340Z,10.50
2023-02-18T22:59:41.641Z,10.75
2023-02-18T23:02:08.039Z,10.87
2023-02-18T23:04:34.320Z,10.66
2023-02-18T23:07:00.883Z,10.84
2023-02-18T23:09:27.224Z,10.72
2023-02-18T23:11:56.141Z,10.55
2023-02-18T23:14:22.900Z,10.41
2023-02-18T23:16:56.324Z,10.45
2023-02-18T23:19:24.268Z,10.59
2023-02-18T23:21:50.544Z,10.45
2023-02-18T23:24:17.331Z,10.60
2023-02-18T23:26:43.656Z,10.30
2023-02-18T23:29:10.353Z,10.38
2023-02-18T23:31:36.810Z,10.58
2023-02-18T23:34:05.485Z,10.73
2023-02-18T23:36:33.511Z,10.36
2023-02-18T23:39:02.701Z,10.39
2023-02-18T23:41:30.128Z,10.29
2023-02-18T23:43:57.062Z,10.54
2023-02-18T23:46:26.502Z,10.77
2023-02-18T23:48:52.982Z,10.87
2023-02-18T23:51:21.661Z,10.84
2023-02-18T23:53:48.826Z,10.39
2023-02-18T23:56:20.691Z,10.75
2023-02-18T23:58:50.139Z,10.85
